createdAt,value
2023-01-18T00:00:14.331Z,968.34
2023-01-18T00:01:14.307Z,968.30
2023-01-18T00:02:14.327Z,968.31
2023-01-18T00:03:14.319Z,968.33
2023-01-18T00:04:14.292Z,968.28
2023-01-18T00:05:14.318Z,968.26
2023-01-18T00:06:14.272Z,968.29
2023-01-18T00:07:14.267Z,968.24
2023-01-18T00:08:14.280Z,968.30
2023-01-18T00:09:14.253Z,968.25
2023-01-18T00:10:14.250Z,968.24
2023-01-18T00:11:14.238Z,968.20
2023-01-18T00:12:14.231Z,968.26
2023-01-18T00:13:14.262Z,968.22
2023-01-18T00:14:14.209Z,968.25
2023-01-18T00:15:14.212Z,968.23
2023-01-18T00:16:14.241Z,968.14
2023-01-18T00:17:14.181Z,968.22
2023-01-18T00:18:14.215Z,968.20
2023-01-18T00:19:14.172Z,968.19
2023-01-18T00:20:14.168Z,968.17
2023-01-18T00:21:14.158Z,968.19
2023-01-18T00:22:14.158Z,968.11
2023-01-18T00:23:14.173Z,968.17
2023-01-18T00:24:14.145Z,968.23
2023-01-18T00:25:14.152Z,968.16
2023-01-18T00:26:14.130Z,968.19
2023-01-18T00:27:14.120Z,968.14
2023-01-18T00:28:14.147Z,968.15
2023-01-18T00:29:14.100Z,968.16
2023-01-18T00:30:14.095Z,968.19
2023-01-18T00:31:14.126Z,968.21
2023-01-18T00:32:14.086Z,968.23
2023-01-18T00:33:14.109Z,968.16
2023-01-18T00:34:14.073Z,968.16
2023-01-18T00:35:14.068Z,968.16
2023-01-18T00:36:14.068Z,968.18
2023-01-18T00:37:14.046Z,968.10
2023-01-18T00:38:14.074Z,968.16
2023-01-18T00:39:14.033Z,968.12
2023-01-18T00:40:14.055Z,968.17
2023-01-18T00:41:14.016Z,968.14
2023-01-18T00:42:14.019Z,968.11
2023-01-18T00:43:14.049Z,968.07
2023-01-18T00:44:14.011Z,968.13
2023-01-18T00:45:13.996Z,968.11
2023-01-18T00:46:13.986Z,968.08
2023-01-18T00:47:14.984Z,968.06
2023-01-18T00:48:13.995Z,968.05
2023-01-18T00:49:13.975Z,968.12
2023-01-18T00:50:13.961Z,968.12
2023-01-18T00:51:13.969Z,968.10
2023-01-18T00:52:13.949Z,968.07
2023-01-18T00:53:13.975Z,968.05
2023-01-18T00:54:13.936Z,968.05
2023-01-18T00:55:13.923Z,968.11
2023-01-18T00:56:13.924Z,968.10
2023-01-18T00:57:13.916Z,968.12
2023-01-18T00:58:13.902Z,968.14
2023-01-18T00:59:13.927Z,968.08
2023-01-18T01:00:13.897Z,968.11
2023-01-18T01:01:14.072Z,968.06
2023-01-18T01:02:13.947Z,968.11
2023-01-18T01:03:13.876Z,968.09
2023-01-18T01:04:13.896Z,968.08
2023-01-18T01:05:13.897Z,968.13
2023-01-18T01:06:13.884Z,968.13
2023-01-18T01:07:13.844Z,968.15
2023-01-18T01:08:13.831Z,968.17
2023-01-18T01:09:13.850Z,968.09
2023-01-18T01:10:13.816Z,968.13
2023-01-18T01:11:13.816Z,968.13
2023-01-18T01:12:13.799Z,968.11
2023-01-18T01:13:13.800Z,968.19
2023-01-18T01:14:13.813Z,968.19
2023-01-18T01:15:13.786Z,968.21
2023-01-18T01:16:13.797Z,968.18
2023-01-18T01:17:13.769Z,968.17
2023-01-18T01:18:13.759Z,968.21
2023-01-18T01:19:13.787Z,968.27
2023-01-18T01:20:13.748Z,968.23
2023-01-18T01:21:13.745Z,968.21
2023-01-18T01:22:13.735Z,968.20
2023-01-18T01:23:13.738Z,968.20
2023-01-18T01:24:13.752Z,968.24
2023-01-18T01:25:13.717Z,968.23
2023-01-18T01:26:13.766Z,968.18
2023-01-18T01:27:13.707Z,968.26
2023-01-18T01:28:13.700Z,968.21
2023-01-18T01:29:13.720Z,968.19
2023-01-18T01:30:13.680Z,968.25
2023-01-18T01:31:13.672Z,968.27
2023-01-18T01:32:13.659Z,968.29
2023-01-18T01:33:13.669Z,968.25
2023-01-18T01:34:13.674Z,968.29
2023-01-18T01:35:13.636Z,968.17
2023-01-18T01:36:13.636Z,968.26
2023-01-18T01:37:13.633Z,968.25
2023-01-18T01:38:13.622Z,968.21
2023-01-18T01:39:13.644Z,968.26
2023-01-18T01:40:13.601Z,968.28
2023-01-18T01:41:13.599Z,968.28
2023-01-18T01:42:13.593Z,968.31
2023-01-18T01:43:13.579Z,968.28
2023-01-18T01:44:13.597Z,968.28
2023-01-18T01:45:13.568Z,968.33
2023-01-18T01:46:13.624Z,968.33
2023-01-18T01:47:13.548Z,968.38
2023-01-18T01:48:13.562Z,968.36
2023-01-18T01:49:13.569Z,968.36
2023-01-18T01:50:13.531Z,968.38
2023-01-18T01:51:13.520Z,968.47
2023-01-18T01:52:13.528Z,968.41
2023-01-18T01:53:13.505Z,968.38
2023-01-18T01:54:13.548Z,968.45
2023-01-18T01:55:13.496Z,968.42
2023-01-18T01:56:13.536Z,968.39
2023-01-18T01:57:13.484Z,968.41
2023-01-18T01:58:13.473Z,968.31
2023-01-18T01:59:13.491Z,968.39
2023-01-18T02:00:13.472Z,968.43
2023-01-18T02:01:13.544Z,968.43
2023-01-18T02:02:13.557Z,968.41
2023-01-18T02:03:13.442Z,968.47
2023-01-18T02:04:13.468Z,968.49
2023-01-18T02:05:13.433Z,968.50
2023-01-18T02:06:13.513Z,968.52
2023-01-18T02:07:13.412Z,968.51
2023-01-18T02:08:13.409Z,968.51
2023-01-18T02:09:13.424Z,968.57
2023-01-18T02:10:13.388Z,968.54
2023-01-18T02:11:13.380Z,968.56
2023-01-18T02:12:13.375Z,968.61
2023-01-18T02:13:13.360Z,968.55
2023-01-18T02:14:13.383Z,968.61
2023-01-18T02:15:13.341Z,968.67
2023-01-18T02:16:13.336Z,968.62
2023-01-18T02:17:13.348Z,968.65
2023-01-18T02:18:13.323Z,968.69
2023-01-18T02:19:13.321Z,968.67
2023-01-18T02:20:13.338Z,968.71
2023-01-18T02:21:13.305Z,968.72
2023-01-18T02:22:13.290Z,968.66
2023-01-18T02:23:13.288Z,968.65
2023-01-18T02:24:13.294Z,968.70
2023-01-18T02:25:13.299Z,968.72
2023-01-18T02:26:13.272Z,968.73
2023-01-18T02:27:13.257Z,968.68
2023-01-18T02:28:13.262Z,968.76
2023-01-18T02:29:13.245Z,968.79
2023-01-18T02:30:13.269Z,968.75
2023-01-18T02:31:13.259Z,968.74
2023-01-18T02:32:13.219Z,968.74
2023-01-18T02:33:13.216Z,968.80
2023-01-18T02:34:13.206Z,968.76
2023-01-18T02:35:13.230Z,968.79
2023-01-18T02:36:13.205Z,968.72
2023-01-18T02:37:13.182Z,968.79
2023-01-18T02:38:13.188Z,968.76
2023-01-18T02:39:13.168Z,968.78
2023-01-18T02:40:13.195Z,968.72
2023-01-18T02:41:13.149Z,968.77
2023-01-18T02:42:13.150Z,968.81
2023-01-18T02:43:13.139Z,968.85
2023-01-18T02:44:13.136Z,968.79
2023-01-18T02:45:13.158Z,968.83
2023-01-18T02:46:13.126Z,968.78
2023-01-18T02:47:13.116Z,968.77
2023-01-18T02:48:13.106Z,968.85
2023-01-18T02:49:13.114Z,968.86
2023-01-18T02:50:13.117Z,968.86
2023-01-18T02:51:13.104Z,968.84
2023-01-18T02:52:13.077Z,968.86
2023-01-18T02:53:13.068Z,968.86
2023-01-18T02:54:13.082Z,968.84
2023-01-18T02:55:13.081Z,968.85
2023-01-18T02:56:13.045Z,968.86
2023-01-18T02:57:13.039Z,968.87
2023-01-18T02:58:13.034Z,968.87
2023-01-18T02:59:13.023Z,968.80
2023-01-18T03:00:13.049Z,968.80
2023-01-18T03:01:13.108Z,968.85
2023-01-18T03:02:14.047Z,968.86
2023-01-18T03:03:12.993Z,968.91
2023-01-18T03:04:12.989Z,968.93
2023-01-18T03:05:13.007Z,968.91
2023-01-18T03:06:12.984Z,968.93
2023-01-18T03:07:12.971Z,968.88
2023-01-18T03:08:12.967Z,968.92
2023-01-18T03:09:12.951Z,968.93
2023-01-18T03:10:13.014Z,968.96
2023-01-18T03:11:12.939Z,968.97
2023-01-18T03:12:12.931Z,968.93
2023-01-18T03:13:12.920Z,968.96
2023-01-18T03:14:12.927Z,968.85
2023-01-18T03:15:12.978Z,968.93
2023-01-18T03:16:12.892Z,968.91
2023-01-18T03:17:13.900Z,968.90
2023-01-18T03:18:12.887Z,968.89
2023-01-18T03:19:12.879Z,968.81
2023-01-18T03:20:12.918Z,968.84
2023-01-18T03:21:12.878Z,968.82
2023-01-18T03:22:12.858Z,968.78
2023-01-18T03:23:12.857Z,968.87
2023-01-18T03:24:12.852Z,968.77
2023-01-18T03:25:12.835Z,968.85
2023-01-18T03:26:12.862Z,968.90
2023-01-18T03:27:12.834Z,968.83
2023-01-18T03:28:12.823Z,968.81
2023-01-18T03:29:12.812Z,968.88
2023-01-18T03:30:12.803Z,968.93
2023-01-18T03:31:12.859Z,968.91
2023-01-18T03:32:12.798Z,968.92
2023-01-18T03:33:12.787Z,968.89
2023-01-18T03:34:12.784Z,968.87
2023-01-18T03:35:12.791Z,969.02
2023-01-18T03:36:12.797Z,968.95
2023-01-18T03:37:12.763Z,968.86
2023-01-18T03:38:12.748Z,968.94
2023-01-18T03:39:12.751Z,969.03
2023-01-18T03:40:12.745Z,968.91
2023-01-18T03:41:12.764Z,968.96
2023-01-18T03:42:12.731Z,969.09
2023-01-18T03:43:12.712Z,968.99
2023-01-18T03:44:12.726Z,969.01
2023-01-18T03:45:12.701Z,968.98
2023-01-18T03:46:12.783Z,968.98
2023-01-18T03:47:12.724Z,969.05
2023-01-18T03:48:12.685Z,969.07
2023-01-18T03:49:12.677Z,969.04
2023-01-18T03:50:12.668Z,969.02
2023-01-18T03:51:12.690Z,969.08
2023-01-18T03:52:12.653Z,969.10
2023-01-18T03:53:12.644Z,969.11
2023-01-18T03:54:12.640Z,969.14
2023-01-18T03:55:12.638Z,969.11
2023-01-18T03:56:12.669Z,969.11
2023-01-18T03:57:12.632Z,969.15
2023-01-18T03:58:12.615Z,969.08
2023-01-18T03:59:12.604Z,969.06
2023-01-18T04:00:12.598Z,969.12
2023-01-18T04:01:12.751Z,969.15
2023-01-18T04:02:12.581Z,969.15
2023-01-18T04:03:12.659Z,969.07
2023-01-18T04:04:12.567Z,969.15
2023-01-18T04:05:12.563Z,969.18
2023-01-18T04:06:12.589Z,969.13
2023-01-18T04:07:12.552Z,969.22
2023-01-18T04:08:12.543Z,969.08
2023-01-18T04:09:12.561Z,969.13
2023-01-18T04:10:12.535Z,969.13
2023-01-18T04:11:12.541Z,969.23
2023-01-18T04:12:12.526Z,969.16
2023-01-18T04:13:12.514Z,969.18
2023-01-18T04:14:12.504Z,969.15
2023-01-18T04:15:12.494Z,969.17
2023-01-18T04:16:12.536Z,969.17
2023-01-18T04:17:12.480Z,969.20
2023-01-18T04:18:12.470Z,969.20
2023-01-18T04:19:12.473Z,969.25
2023-01-18T04:20:12.464Z,969.17
2023-01-18T04:21:12.474Z,969.25
2023-01-18T04:22:12.449Z,969.29
2023-01-18T04:23:12.444Z,969.32
2023-01-18T04:24:12.432Z,969.27
2023-01-18T04:25:12.424Z,969.28
2023-01-18T04:26:12.457Z,969.32
2023-01-18T04:27:12.416Z,969.28
2023-01-18T04:28:12.433Z,969.31
2023-01-18T04:29:12.394Z,969.34
2023-01-18T04:30:12.395Z,969.33
2023-01-18T04:31:12.427Z,969.36
2023-01-18T04:32:12.376Z,969.34
2023-01-18T04:33:12.363Z,969.33
2023-01-18T04:34:12.358Z,969.36
2023-01-18T04:35:12.366Z,969.40
2023-01-18T04:36:12.390Z,969.44
2023-01-18T04:37:12.337Z,969.40
2023-01-18T04:38:12.339Z,969.43
2023-01-18T04:39:12.322Z,969.43
2023-01-18T04:40:12.316Z,969.43
2023-01-18T04:41:44.252Z,969.48
2023-01-18T04:42:12.297Z,969.49
2023-01-18T04:43:12.287Z,969.54
2023-01-18T04:44:12.279Z,969.55
2023-01-18T04:45:12.272Z,969.50
2023-01-18T04:46:12.344Z,969.54
2023-01-18T04:47:12.256Z,969.59
2023-01-18T04:48:12.278Z,969.57
2023-01-18T04:49:12.252Z,969.60
2023-01-18T04:50:13.240Z,969.60
2023-01-18T04:51:12.250Z,969.53
2023-01-18T04:52:13.228Z,969.66
2023-01-18T04:53:12.217Z,969.56
2023-01-18T04:54:12.221Z,969.63
2023-01-18T04:55:12.206Z,969.61
2023-01-18T04:56:12.220Z,969.63
2023-01-18T04:57:12.183Z,969.65
2023-01-18T04:58:12.198Z,969.70
2023-01-18T04:59:12.186Z,969.68
2023-01-18T05:00:12.165Z,969.76
2023-01-18T05:01:12.347Z,969.69
2023-01-18T05:02:12.169Z,969.72
2023-01-18T05:03:12.148Z,969.70
2023-01-18T05:04:12.136Z,969.80
2023-01-18T05:05:12.135Z,969.70
2023-01-18T05:06:12.160Z,969.68
2023-01-18T05:07:12.124Z,969.73
2023-01-18T05:08:12.116Z,969.75
2023-01-18T05:09:12.105Z,969.72
2023-01-18T05:10:12.108Z,969.76
2023-01-18T05:11:12.112Z,969.79
2023-01-18T05:12:12.075Z,969.78
2023-01-18T05:13:12.071Z,969.79
2023-01-18T05:14:12.072Z,969.77
2023-01-18T05:15:12.072Z,969.86
2023-01-18T05:16:12.081Z,969.85
2023-01-18T05:17:12.048Z,969.87
2023-01-18T05:18:12.047Z,969.90
2023-01-18T05:19:12.031Z,969.94
2023-01-18T05:20:12.038Z,969.95
2023-01-18T05:21:12.041Z,969.96
2023-01-18T05:22:12.041Z,969.95
2023-01-18T05:23:12.002Z,969.87
2023-01-18T05:24:12.002Z,969.97
2023-01-18T05:25:12.002Z,969.98
2023-01-18T05:26:12.026Z,969.97
2023-01-18T05:27:11.975Z,969.93
2023-01-18T05:28:11.967Z,969.98
2023-01-18T05:29:12.960Z,969.91
2023-01-18T05:30:11.953Z,970.00
2023-01-18T05:31:12.091Z,970.02
2023-01-18T05:32:11.949Z,970.06
2023-01-18T05:33:11.941Z,970.07
2023-01-18T05:34:11.928Z,970.07
2023-01-18T05:35:11.916Z,970.08
2023-01-18T05:36:11.921Z,970.10
2023-01-18T05:37:11.932Z,970.15
2023-01-18T05:38:11.898Z,970.18
2023-01-18T05:39:11.894Z,970.13
2023-01-18T05:40:11.882Z,970.12
2023-01-18T05:41:11.892Z,970.15
2023-01-18T05:42:11.915Z,970.16
2023-01-18T05:43:11.869Z,970.12
2023-01-18T05:44:11.866Z,970.11
2023-01-18T05:45:11.850Z,970.10
2023-01-18T05:46:11.905Z,970.13
2023-01-18T05:47:11.863Z,970.17
2023-01-18T05:48:11.829Z,970.20
2023-01-18T05:49:11.830Z,970.19
2023-01-18T05:50:11.824Z,970.20
2023-01-18T05:51:11.811Z,970.24
2023-01-18T05:52:11.817Z,970.29
2023-01-18T05:53:12.789Z,970.32
2023-01-18T05:54:11.789Z,970.38
2023-01-18T05:55:11.774Z,970.30
2023-01-18T05:56:11.806Z,970.30
2023-01-18T05:57:11.789Z,970.32
2023-01-18T05:58:11.784Z,970.29
2023-01-18T05:59:11.753Z,970.36
2023-01-18T06:00:11.746Z,970.37
2023-01-18T06:01:11.826Z,970.29
2023-01-18T06:02:11.837Z,970.37
2023-01-18T06:03:11.724Z,970.33
2023-01-18T06:04:11.753Z,970.39
2023-01-18T06:05:11.714Z,970.40
2023-01-18T06:06:11.708Z,970.40
2023-01-18T06:07:11.720Z,970.40
2023-01-18T06:08:11.698Z,970.45
2023-01-18T06:09:11.675Z,970.45
2023-01-18T06:10:11.724Z,970.41
2023-01-18T06:11:11.664Z,970.47
2023-01-18T06:12:11.685Z,970.48
2023-01-18T06:13:11.650Z,970.53
2023-01-18T06:14:11.648Z,970.51
2023-01-18T06:15:11.641Z,970.60
2023-01-18T06:16:11.666Z,970.59
2023-01-18T06:17:11.640Z,970.63
2023-01-18T06:18:11.610Z,970.60
2023-01-18T06:19:11.605Z,970.63
2023-01-18T06:20:11.600Z,970.62
2023-01-18T06:21:11.586Z,970.60
2023-01-18T06:22:11.620Z,970.60
2023-01-18T06:23:11.579Z,970.57
2023-01-18T06:24:11.571Z,970.58
2023-01-18T06:25:11.565Z,970.64
2023-01-18T06:26:11.571Z,970.66
2023-01-18T06:27:11.578Z,970.65
2023-01-18T06:28:11.540Z,970.70
2023-01-18T06:29:11.536Z,970.68
2023-01-18T06:30:11.553Z,970.69
2023-01-18T06:31:11.573Z,970.71
2023-01-18T06:32:11.536Z,970.71
2023-01-18T06:33:11.521Z,970.70
2023-01-18T06:34:11.505Z,970.74
2023-01-18T06:35:11.501Z,970.80
2023-01-18T06:36:11.484Z,970.72
2023-01-18T06:37:11.501Z,970.83
2023-01-18T06:38:11.474Z,970.77
2023-01-18T06:39:11.466Z,970.80
2023-01-18T06:40:11.458Z,970.79
2023-01-18T06:41:11.450Z,970.79
2023-01-18T06:42:11.489Z,970.83
2023-01-18T06:43:11.461Z,970.87
2023-01-18T06:44:11.438Z,970.87
2023-01-18T06:45:11.424Z,970.85
2023-01-18T06:46:11.482Z,970.92
2023-01-18T06:47:11.444Z,970.96
2023-01-18T06:48:11.401Z,970.94
2023-01-18T06:49:11.392Z,970.99
2023-01-18T06:50:11.379Z,970.93
2023-01-18T06:51:11.372Z,970.99
2023-01-18T06:52:11.400Z,971.00
2023-01-18T06:53:11.370Z,970.99
2023-01-18T06:54:11.357Z,971.04
2023-01-18T06:55:11.348Z,971.02
2023-01-18T06:56:11.345Z,971.09
2023-01-18T06:57:11.418Z,971.00
2023-01-18T06:58:11.328Z,971.11
2023-01-18T06:59:11.323Z,971.16
2023-01-18T07:00:11.317Z,971.05
2023-01-18T07:01:11.359Z,971.17
2023-01-18T07:02:11.375Z,971.20
2023-01-18T07:03:11.305Z,971.18
2023-01-18T07:04:11.301Z,971.19
2023-01-18T07:05:11.279Z,971.25
2023-01-18T07:06:11.271Z,971.21
2023-01-18T07:07:11.298Z,971.25
2023-01-18T07:08:11.257Z,971.27
2023-01-18T07:09:11.254Z,971.25
2023-01-18T07:10:11.247Z,971.33
2023-01-18T07:11:11.234Z,971.28
2023-01-18T07:12:11.256Z,971.28
2023-01-18T07:13:11.221Z,971.30
2023-01-18T07:14:11.217Z,971.35
2023-01-18T07:15:21.102Z,971.35
2023-01-18T07:16:13.208Z,971.41
2023-01-18T07:17:11.221Z,971.32
2023-01-18T07:18:11.184Z,971.34
2023-01-18T07:19:11.191Z,971.38
2023-01-18T07:20:11.178Z,971.40
2023-01-18T07:21:11.235Z,971.46
2023-01-18T07:22:11.181Z,971.48
2023-01-18T07:23:11.271Z,971.51
2023-01-18T07:24:11.150Z,971.53
2023-01-18T07:25:11.137Z,971.52
2023-01-18T07:26:11.146Z,971.49
2023-01-18T07:27:11.159Z,971.53
2023-01-18T07:28:11.132Z,971.50
2023-01-18T07:29:11.117Z,971.59
2023-01-18T07:30:11.121Z,971.62
2023-01-18T07:31:11.099Z,971.54
2023-01-18T07:32:11.147Z,971.57
2023-01-18T07:33:11.090Z,971.60
2023-01-18T07:34:11.069Z,971.61
2023-01-18T07:35:11.073Z,971.64
2023-01-18T07:36:11.075Z,971.67
2023-01-18T07:37:11.112Z,971.71
2023-01-18T07:38:11.053Z,971.67
2023-01-18T07:39:11.041Z,971.69
2023-01-18T07:40:11.092Z,971.66
2023-01-18T07:41:11.040Z,971.76
2023-01-18T07:42:11.075Z,971.72
2023-01-18T07:43:11.019Z,971.72
2023-01-18T07:44:11.002Z,971.66
2023-01-18T07:45:11.002Z,971.72
2023-01-18T07:46:11.022Z,971.73
2023-01-18T07:47:11.020Z,971.76
2023-01-18T07:48:10.986Z,971.68
2023-01-18T07:49:10.970Z,971.77
2023-01-18T07:50:10.956Z,971.82
2023-01-18T07:51:10.971Z,971.81
2023-01-18T07:52:10.952Z,971.84
2023-01-18T07:53:10.966Z,971.82
2023-01-18T07:54:10.937Z,971.79
2023-01-18T07:55:10.933Z,971.89
2023-01-18T07:56:10.923Z,971.82
2023-01-18T07:57:10.914Z,971.82
2023-01-18T07:58:10.931Z,971.92
2023-01-18T07:59:10.906Z,971.87
2023-01-18T08:00:10.941Z,971.96
2023-01-18T08:01:10.955Z,971.98
2023-01-18T08:02:10.997Z,971.90
2023-01-18T08:03:10.924Z,972.00
2023-01-18T08:04:10.864Z,972.02
2023-01-18T08:05:10.869Z,971.96
2023-01-18T08:06:10.845Z,972.01
2023-01-18T08:07:10.836Z,972.01
2023-01-18T08:08:11.418Z,972.04
2023-01-18T08:09:11.826Z,972.07
2023-01-18T08:10:10.828Z,972.04
2023-01-18T08:11:10.812Z,972.09
2023-01-18T08:12:10.799Z,972.13
2023-01-18T08:13:10.829Z,972.16
2023-01-18T08:14:10.782Z,972.23
2023-01-18T08:15:11.813Z,972.22
2023-01-18T08:16:10.856Z,972.24
2023-01-18T08:17:10.812Z,972.19
2023-01-18T08:18:10.797Z,972.32
2023-01-18T08:19:10.754Z,972.27
2023-01-18T08:20:10.750Z,972.30
2023-01-18T08:21:10.754Z,972.30
2023-01-18T08:22:10.740Z,972.24
2023-01-18T08:23:10.760Z,972.34
2023-01-18T08:24:10.715Z,972.27
2023-01-18T08:25:10.723Z,972.34
2023-01-18T08:26:10.720Z,972.21
2023-01-18T08:27:10.704Z,972.29
2023-01-18T08:28:10.731Z,972.34
2023-01-18T08:29:10.691Z,972.33
2023-01-18T08:30:10.678Z,972.33
2023-01-18T08:31:10.712Z,972.36
2023-01-18T08:32:10.679Z,972.35
2023-01-18T08:33:10.687Z,972.39
2023-01-18T08:34:10.661Z,972.43
2023-01-18T08:35:10.644Z,972.34
2023-01-18T08:36:10.650Z,972.38
2023-01-18T08:37:10.622Z,972.46
2023-01-18T08:38:10.652Z,972.49
2023-01-18T08:39:10.621Z,972.49
2023-01-18T08:40:10.606Z,972.47
2023-01-18T08:41:10.604Z,972.53
2023-01-18T08:42:10.603Z,972.56
2023-01-18T08:43:10.636Z,972.57
2023-01-18T08:44:10.599Z,972.57
2023-01-18T08:45:10.567Z,972.56
2023-01-18T08:46:10.592Z,972.56
2023-01-18T08:47:10.567Z,972.64
2023-01-18T08:48:10.585Z,972.62
2023-01-18T08:49:10.550Z,972.64
2023-01-18T08:50:10.541Z,972.63
2023-01-18T08:51:10.556Z,972.68
2023-01-18T08:52:10.534Z,972.68
2023-01-18T08:53:10.547Z,972.69
2023-01-18T08:54:10.508Z,972.73
2023-01-18T08:55:10.509Z,972.73
2023-01-18T08:56:10.498Z,972.75
2023-01-18T08:57:10.485Z,972.69
2023-01-18T08:58:10.509Z,972.68
2023-01-18T08:59:10.501Z,972.78
2023-01-18T09:00:10.462Z,972.78
2023-01-18T09:01:10.487Z,972.82
2023-01-18T09:02:10.511Z,972.80
2023-01-18T09:03:10.526Z,972.81
2023-01-18T09:04:10.434Z,972.82
2023-01-18T09:05:10.444Z,972.87
2023-01-18T09:06:12.881Z,972.92
2023-01-18T09:07:11.413Z,972.88
2023-01-18T09:08:10.427Z,972.92
2023-01-18T09:09:10.402Z,972.92
2023-01-18T09:10:10.427Z,972.90
2023-01-18T09:11:10.425Z,972.92
2023-01-18T09:12:10.377Z,972.96
2023-01-18T09:13:10.401Z,973.01
2023-01-18T09:14:10.354Z,972.96
2023-01-18T09:15:10.349Z,972.98
2023-01-18T09:16:10.428Z,973.01
2023-01-18T09:17:10.337Z,972.97
2023-01-18T09:18:10.368Z,973.03
2023-01-18T09:19:10.323Z,973.08
2023-01-18T09:20:10.318Z,973.12
2023-01-18T09:21:10.313Z,973.15
2023-01-18T09:22:10.338Z,973.19
2023-01-18T09:23:10.309Z,973.17
2023-01-18T09:24:10.336Z,973.20
2023-01-18T09:25:10.294Z,973.20
2023-01-18T09:26:10.277Z,973.23
2023-01-18T09:27:10.274Z,973.17
2023-01-18T09:28:10.265Z,973.21
2023-01-18T09:29:10.279Z,973.23
2023-01-18T09:30:10.287Z,973.27
2023-01-18T09:31:10.271Z,973.34
2023-01-18T09:32:10.238Z,973.27
2023-01-18T09:33:10.223Z,973.33
2023-01-18T09:34:18.800Z,973.37
2023-01-18T09:35:12.204Z,973.40
2023-01-18T09:36:10.200Z,973.47
2023-01-18T09:37:10.227Z,973.42
2023-01-18T09:38:10.180Z,973.46
2023-01-18T09:39:10.209Z,973.45
2023-01-18T09:40:10.166Z,973.42
2023-01-18T09:41:10.151Z,973.48
2023-01-18T09:42:11.157Z,973.50
2023-01-18T09:43:10.148Z,973.44
2023-01-18T09:44:10.179Z,973.49
2023-01-18T09:45:10.135Z,973.52
2023-01-18T09:46:10.287Z,973.50
2023-01-18T09:47:10.117Z,973.49
2023-01-18T09:48:10.131Z,973.53
2023-01-18T09:49:10.139Z,973.51
2023-01-18T09:50:10.119Z,973.56
2023-01-18T09:51:10.087Z,973.61
2023-01-18T09:52:10.091Z,973.60
2023-01-18T09:53:10.079Z,973.59
2023-01-18T09:54:10.104Z,973.63
2023-01-18T09:55:10.064Z,973.61
2023-01-18T09:56:10.061Z,973.64
2023-01-18T09:57:10.050Z,973.60
2023-01-18T09:58:10.045Z,973.65
2023-01-18T09:59:10.066Z,973.61
2023-01-18T10:00:10.026Z,973.61
2023-01-18T10:01:10.164Z,973.65
2023-01-18T10:02:10.290Z,973.67
2023-01-18T10:03:10.043Z,973.61
2023-01-18T10:04:10.043Z,973.64
2023-01-18T10:05:10.199Z,973.64
2023-01-18T10:06:10.051Z,973.66
2023-01-18T10:07:10.037Z,973.62
2023-01-18T10:08:10.033Z,973.62
2023-01-18T10:09:10.092Z,973.66
2023-01-18T10:10:10.069Z,973.62
2023-01-18T10:11:10.159Z,973.69
2023-01-18T10:12:10.986Z,973.74
2023-01-18T10:13:09.979Z,973.57
2023-01-18T10:14:10.026Z,973.67
2023-01-18T10:15:09.989Z,973.73
2023-01-18T10:16:09.958Z,973.76
2023-01-18T10:17:09.946Z,973.69
2023-01-18T10:18:10.009Z,973.75
2023-01-18T10:19:09.947Z,973.73
2023-01-18T10:20:09.966Z,973.72
2023-01-18T10:21:09.986Z,973.75
2023-01-18T10:22:09.936Z,973.80
2023-01-18T10:23:09.923Z,973.70
2023-01-18T10:24:10.002Z,973.79
2023-01-18T10:25:09.897Z,973.77
2023-01-18T10:26:09.966Z,973.76
2023-01-18T10:27:09.921Z,973.81
2023-01-18T10:28:09.892Z,973.78
2023-01-18T10:29:09.865Z,973.80
2023-01-18T10:30:09.842Z,973.74
2023-01-18T10:31:09.973Z,973.85
2023-01-18T10:32:09.848Z,973.78
2023-01-18T10:33:09.809Z,973.74
2023-01-18T10:34:09.820Z,973.75
2023-01-18T10:35:09.868Z,973.71
2023-01-18T10:36:11.682Z,973.73
2023-01-18T10:37:10.812Z,973.72
2023-01-18T10:38:09.917Z,973.73
2023-01-18T10:39:09.805Z,973.74
2023-01-18T10:40:09.822Z,973.76
2023-01-18T10:41:09.792Z,973.80
2023-01-18T10:42:09.781Z,973.75
2023-01-18T10:43:09.780Z,973.76
2023-01-18T10:44:09.861Z,973.75
2023-01-18T10:45:09.763Z,973.75
2023-01-18T10:46:09.833Z,973.83
2023-01-18T10:47:09.728Z,973.83
2023-01-18T10:48:09.692Z,973.84
2023-01-18T10:49:09.796Z,973.86
2023-01-18T10:50:09.741Z,973.89
2023-01-18T10:51:09.804Z,973.87
2023-01-18T10:52:09.713Z,973.93
2023-01-18T10:53:09.684Z,973.93
2023-01-18T10:54:09.732Z,973.87
2023-01-18T10:55:09.681Z,973.90
2023-01-18T10:56:09.744Z,973.94
2023-01-18T10:57:10.126Z,973.93
2023-01-18T10:58:10.682Z,973.92
2023-01-18T10:59:09.602Z,973.90
2023-01-18T11:00:09.753Z,973.98
2023-01-18T11:01:09.923Z,974.00
2023-01-18T11:02:09.887Z,973.98
2023-01-18T11:03:10.160Z,974.01
2023-01-18T11:04:10.656Z,974.00
2023-01-18T11:05:09.568Z,974.01
2023-01-18T11:06:09.781Z,974.09
2023-01-18T11:07:09.761Z,974.09
2023-01-18T11:08:09.557Z,974.07
2023-01-18T11:09:09.579Z,974.06
2023-01-18T11:10:09.704Z,974.04
2023-01-18T11:11:09.585Z,974.07
2023-01-18T11:12:09.646Z,974.02
2023-01-18T11:13:10.020Z,974.10
2023-01-18T11:14:09.537Z,974.10
2023-01-18T11:15:09.515Z,974.05
2023-01-18T11:16:09.600Z,974.03
2023-01-18T11:17:09.581Z,974.09
2023-01-18T11:18:09.503Z,974.11
2023-01-18T11:19:09.532Z,974.04
2023-01-18T11:20:09.491Z,974.05
2023-01-18T11:21:10.473Z,974.09
2023-01-18T11:22:09.504Z,974.09
2023-01-18T11:23:09.463Z,974.17
2023-01-18T11:24:09.522Z,974.12
2023-01-18T11:25:09.495Z,974.16
2023-01-18T11:26:09.489Z,974.10
2023-01-18T11:27:09.442Z,974.15
2023-01-18T11:28:09.460Z,974.08
2023-01-18T11:29:09.380Z,974.08
2023-01-18T11:30:10.418Z,974.05
2023-01-18T11:31:09.410Z,974.14
2023-01-18T11:32:09.463Z,974.09
2023-01-18T11:33:09.367Z,974.12
2023-01-18T11:34:09.361Z,974.13
2023-01-18T11:35:09.380Z,974.05
2023-01-18T11:36:09.363Z,974.13
2023-01-18T11:37:09.355Z,974.15
2023-01-18T11:38:09.337Z,974.10
2023-01-18T11:39:09.347Z,974.09
2023-01-18T11:40:09.326Z,974.14
2023-01-18T11:41:09.339Z,974.17
2023-01-18T11:42:09.387Z,974.14
2023-01-18T11:43:09.363Z,974.15
2023-01-18T11:44:09.308Z,974.15
2023-01-18T11:45:09.331Z,974.14
2023-01-18T11:46:09.369Z,974.10
2023-01-18T11:47:09.313Z,974.16
2023-01-18T11:48:09.271Z,974.21
2023-01-18T11:49:09.247Z,974.19
2023-01-18T11:50:21.425Z,974.24
2023-01-18T11:51:11.231Z,974.21
2023-01-18T11:52:09.295Z,974.23
2023-01-18T11:53:09.278Z,974.22
2023-01-18T11:54:09.262Z,974.24
2023-01-18T11:55:09.307Z,974.22
2023-01-18T11:56:09.265Z,974.19
2023-01-18T11:57:09.227Z,974.27
2023-01-18T11:58:09.179Z,974.34
2023-01-18T11:59:09.191Z,974.24
2023-01-18T12:00:09.676Z,974.32
2023-01-18T12:01:10.225Z,974.31
2023-01-18T12:02:09.259Z,974.32
2023-01-18T12:03:09.208Z,974.32
2023-01-18T12:04:09.122Z,974.33
2023-01-18T12:05:09.127Z,974.43
2023-01-18T12:06:09.182Z,974.40
2023-01-18T12:07:09.174Z,974.46
2023-01-18T12:08:09.145Z,974.43
2023-01-18T12:09:09.099Z,974.43
2023-01-18T12:10:09.114Z,974.46
2023-01-18T12:11:09.156Z,974.38
2023-01-18T12:12:18.475Z,974.42
2023-01-18T12:13:11.126Z,974.40
2023-01-18T12:14:09.052Z,974.41
2023-01-18T12:15:09.068Z,974.44
2023-01-18T12:16:09.196Z,974.48
2023-01-18T12:17:09.037Z,974.44
2023-01-18T12:18:13.464Z,974.46
2023-01-18T12:19:10.032Z,974.49
2023-01-18T12:20:09.064Z,974.50
2023-01-18T12:21:09.007Z,974.48
2023-01-18T12:22:10.001Z,974.53
2023-01-18T12:23:09.081Z,974.55
2023-01-18T12:24:08.998Z,974.55
2023-01-18T12:25:09.019Z,974.60
2023-01-18T12:26:12.499Z,974.53
2023-01-18T12:27:09.987Z,974.52
2023-01-18T12:28:09.021Z,974.58